sensor_id;sensor_type;location;lat;lon;timestamp;pressure;altitude;pressure_sealevel;temperature
40045;BMP280;25735;48.122;11.422;2023-02-01T00:00:23;95739.78;;;4.22
40045;BMP280;25735;48.122;11.422;2023-02-01T00:02:48;95752.97;;;4.17
40045;BMP280;25735;48.122;11.422;2023-02-01T00:05:14;95759.00;;;4.21
40045;BMP280;25735;48.122;11.422;2023-02-01T00:07:39;95743.38;;;4.16
40045;BMP280;25735;48.122;11.422;2023-02-01T00:10:05;95750.00;;;4.27
40045;BMP280;25735;48.122;11.422;2023-02-01T00:12:31;95735.63;;;4.34
40045;BMP280;25735;48.122;11.422;2023-02-01T00:14:56;95741.34;;;4.36
40045;BMP280;25735;48.122;11.422;2023-02-01T00:17:22;95742.38;;;4.42
40045;BMP280;25735;48.122;11.422;2023-02-01T00:19:47;95753.88;;;4.42
40045;BMP280;25735;48.122;11.422;2023-02-01T00:22:12;95760.19;;;4.36
40045;BMP280;25735;48.122;11.422;2023-02-01T00:24:37;95746.97;;;4.41
40045;BMP280;25735;48.122;11.422;2023-02-01T00:27:03;95737.91;;;4.35
40045;BMP280;25735;48.122;11.422;2023-02-01T00:29:28;95746.56;;;4.27
40045;BMP280;25735;48.122;11.422;2023-02-01T00:31:53;95741.19;;;4.27
40045;BMP280;25735;48.122;11.422;2023-02-01T00:34:19;95735.47;;;4.25
40045;BMP280;25735;48.122;11.422;2023-02-01T00:36:45;95743.63;;;4.21
40045;BMP280;25735;48.122;11.422;2023-02-01T00:39:11;95743.03;;;4.14
40045;BMP280;25735;48.122;11.422;2023-02-01T00:41:37;95741.44;;;4.17
40045;BMP280;25735;48.122;11.422;2023-02-01T00:44:03;95740.16;;;4.05
40045;BMP280;25735;48.122;11.422;2023-02-01T00:46:29;95753.63;;;4.21
40045;BMP280;25735;48.122;11.422;2023-02-01T00:48:54;95749.34;;;4.08
40045;BMP280;25735;48.122;11.422;2023-02-01T00:51:22;95738.41;;;3.83
40045;BMP280;25735;48.122;11.422;2023-02-01T00:53:48;95728.69;;;3.70
40045;BMP280;25735;48.122;11.422;2023-02-01T00:56:14;95725.03;;;3.64
40045;BMP280;25735;48.122;11.422;2023-02-01T00:58:39;95726.75;;;3.55
40045;BMP280;25735;48.122;11.422;2023-02-01T01:03:41;95718.88;;;3.64
40045;BMP280;25735;48.122;11.422;2023-02-01T01:06:12;95718.81;;;3.67
40045;BMP280;25735;48.122;11.422;2023-02-01T01:08:38;95716.22;;;3.64
40045;BMP280;25735;48.122;11.422;2023-02-01T01:11:09;95722.56;;;3.69
40045;BMP280;25735;48.122;11.422;2023-02-01T01:13:35;95718.81;;;3.67
40045;BMP280;25735;48.122;11.422;2023-02-01T01:16:04;95728.31;;;3.71
40045;BMP280;25735;48.122;11.422;2023-02-01T01:18:31;95724.44;;;3.72
40045;BMP280;25735;48.122;11.422;2023-02-01T01:20:57;95719.47;;;3.71
40045;BMP280;25735;48.122;11.422;2023-02-01T01:23:22;95723.50;;;3.63
40045;BMP280;25735;48.122;11.422;2023-02-01T01:25:48;95705.09;;;3.62
40045;BMP280;25735;48.122;11.422;2023-02-01T01:28:13;95710.56;;;3.58
40045;BMP280;25735;48.122;11.422;2023-02-01T01:30:38;95717.31;;;3.47
40045;BMP280;25735;48.122;11.422;2023-02-01T01:33:04;95704.91;;;3.53
40045;BMP280;25735;48.122;11.422;2023-02-01T01:35:30;95707.53;;;3.56
40045;BMP280;25735;48.122;11.422;2023-02-01T01:37:57;95717.69;;;3.49
40045;BMP280;25735;48.122;11.422;2023-02-01T01:40:22;95704.88;;;3.37
40045;BMP280;25735;48.122;11.422;2023-02-01T01:42:48;95709.16;;;3.35
40045;BMP280;25735;48.122;11.422;2023-02-01T01:45:27;95704.47;;;3.38
40045;BMP280;25735;48.122;11.422;2023-02-01T01:47:55;95710.25;;;3.37
40045;BMP280;25735;48.122;11.422;2023-02-01T01:50:25;95700.47;;;3.27
40045;BMP280;25735;48.122;11.422;2023-02-01T01:52:53;95698.50;;;3.31
40045;BMP280;25735;48.122;11.422;2023-02-01T01:55:20;95681.50;;;3.18
40045;BMP280;25735;48.122;11.422;2023-02-01T01:57:54;95685.97;;;3.25
40045;BMP280;25735;48.122;11.422;2023-02-01T02:00:20;95681.50;;;3.18
40045;BMP280;25735;48.122;11.422;2023-02-01T02:02:47;95688.31;;;3.23
40045;BMP280;25735;48.122;11.422;2023-02-01T02:05:16;95673.09;;;3.16
40045;BMP280;25735;48.122;11.422;2023-02-01T02:07:46;95667.47;;;3.11
40045;BMP280;25735;48.122;11.422;2023-02-01T02:10:13;95670.41;;;3.16
40045;BMP280;25735;48.122;11.422;2023-02-01T02:12:41;95665.81;;;3.17
40045;BMP280;25735;48.122;11.422;2023-02-01T02:15:12;95672.28;;;3.19
40045;BMP280;25735;48.122;11.422;2023-02-01T02:17:58;95681.59;;;3.31
40045;BMP280;25735;48.122;11.422;2023-02-01T02:29:15;95691.44;;;3.37
40045;BMP280;25735;48.122;11.422;2023-02-01T02:32:07;95698.19;;;3.45
40045;BMP280;25735;48.122;11.422;2023-02-01T02:34:56;95695.31;;;3.36
40045;BMP280;25735;48.122;11.422;2023-02-01T02:37:44;95702.63;;;3.36
40045;BMP280;25735;48.122;11.422;2023-02-01T02:46:23;95684.59;;;3.52
40045;BMP280;25735;48.122;11.422;2023-02-01T02:49:12;95683.56;;;3.46
40045;BMP280;25735;48.122;11.422;2023-02-01T02:51:48;95679.97;;;3.52
40045;BMP280;25735;48.122;11.422;2023-02-01T02:54:37;95667.66;;;3.55
40045;BMP280;25735;48.122;11.422;2023-02-01T02:57:24;95674.53;;;3.56
40045;BMP280;25735;48.122;11.422;2023-02-01T03:00:12;95671.56;;;3.50
40045;BMP280;25735;48.122;11.422;2023-02-01T03:02:58;95674.03;;;3.61
40045;BMP280;25735;48.122;11.422;2023-02-01T03:05:45;95662.50;;;3.60
40045;BMP280;25735;48.122;11.422;2023-02-01T03:08:16;95646.25;;;3.67
40045;BMP280;25735;48.122;11.422;2023-02-01T03:11:02;95661.13;;;3.71
40045;BMP280;25735;48.122;11.422;2023-02-01T03:13:51;95648.25;;;3.79
40045;BMP280;25735;48.122;11.422;2023-02-01T03:16:22;95662.78;;;3.65
40045;BMP280;25735;48.122;11.422;2023-02-01T03:19:20;95656.41;;;3.75
40045;BMP280;25735;48.122;11.422;2023-02-01T03:24:27;95658.25;;;3.78
40045;BMP280;25735;48.122;11.422;2023-02-01T03:27:03;95657.31;;;3.85
40045;BMP280;25735;48.122;11.422;2023-02-01T03:29:37;95653.72;;;3.75
40045;BMP280;25735;48.122;11.422;2023-02-01T03:32:03;95651.03;;;3.75
40045;BMP280;25735;48.122;11.422;2023-02-01T03:34:29;95658.09;;;3.85
40045;BMP280;25735;48.122;11.422;2023-02-01T03:37:00;95659.19;;;3.88
40045;BMP280;25735;48.122;11.422;2023-02-01T03:39:45;95655.41;;;3.85
40045;BMP280;25735;48.122;11.422;2023-02-01T03:42:24;95672.28;;;3.86
40045;BMP280;25735;48.122;11.422;2023-02-01T03:45:13;95661.03;;;3.91
40045;BMP280;25735;48.122;11.422;2023-02-01T03:47:42;95650.84;;;3.98
40045;BMP280;25735;48.122;11.422;2023-02-01T03:50:11;95651.53;;;3.86
40045;BMP280;25735;48.122;11.422;2023-02-01T03:52:41;95647.41;;;3.82
40045;BMP280;25735;48.122;11.422;2023-02-01T03:55:08;95640.44;;;3.84
40045;BMP280;25735;48.122;11.422;2023-02-01T03:57:38;95639.78;;;3.96
40045;BMP280;25735;48.122;11.422;2023-02-01T04:00:15;95645.91;;;3.81
40045;BMP280;25735;48.122;11.422;2023-02-01T04:02:41;95648.50;;;3.84
40045;BMP280;25735;48.122;11.422;2023-02-01T04:05:07;95652.53;;;3.76
40045;BMP280;25735;48.122;11.422;2023-02-01T04:07:32;95635.34;;;3.90
40045;BMP280;25735;48.122;11.422;2023-02-01T04:09:57;95647.00;;;3.83
40045;BMP280;25735;48.122;11.422;2023-02-01T04:12:22;95651.53;;;3.86
40045;BMP280;25735;48.122;11.422;2023-02-01T04:14:48;95645.00;;;3.87
40045;BMP280;25735;48.122;11.422;2023-02-01T04:17:13;95663.22;;;3.80
40045;BMP280;25735;48.122;11.422;2023-02-01T04:19:38;95657.16;;;3.76
40045;BMP280;25735;48.122;11.422;2023-02-01T04:22:03;95649.00;;;3.79
40045;BMP280;25735;48.122;11.422;2023-02-01T04:24:29;95630.09;;;3.83
40045;BMP280;25735;48.122;11.422;2023-02-01T04:26:54;95642.13;;;3.78
40045;BMP280;25735;48.122;11.422;2023-02-01T04:29:19;95623.81;;;3.89
40045;BMP280;25735;48.122;11.422;2023-02-01T04:31:44;95640.19;;;3.79
40045;BMP280;25735;48.122;11.422;2023-02-01T04:34:11;95638.06;;;3.86
40045;BMP280;25735;48.122;11.422;2023-02-01T04:36:36;95642.38;;;3.84
40045;BMP280;25735;48.122;11.422;2023-02-01T04:39:01;95639.25;;;3.85
40045;BMP280;25735;48.122;11.422;2023-02-01T04:41:26;95652.13;;;3.78
40045;BMP280;25735;48.122;11.422;2023-02-01T04:43:52;95644.41;;;3.80
40045;BMP280;25735;48.122;11.422;2023-02-01T04:46:17;95650.00;;;3.85
40045;BMP280;25735;48.122;11.422;2023-02-01T04:48:43;95641.72;;;3.80
40045;BMP280;25735;48.122;11.422;2023-02-01T04:51:08;95657.41;;;3.81
40045;BMP280;25735;48.122;11.422;2023-02-01T04:53:34;95644.16;;;3.74
40045;BMP280;25735;48.122;11.422;2023-02-01T04:56:00;95640.78;;;3.70
40045;BMP280;25735;48.122;11.422;2023-02-01T04:58:25;95641.78;;;3.76
40045;BMP280;25735;48.122;11.422;2023-02-01T05:00:50;95647.66;;;3.71
40045;BMP280;25735;48.122;11.422;2023-02-01T05:03:16;95644.91;;;3.75
40045;BMP280;25735;48.122;11.422;2023-02-01T05:05:42;95636.09;;;3.74
40045;BMP280;25735;48.122;11.422;2023-02-01T05:08:07;95633.88;;;3.85
40045;BMP280;25735;48.122;11.422;2023-02-01T05:10:32;95650.53;;;3.80
40045;BMP280;25735;48.122;11.422;2023-02-01T05:12:57;95638.09;;;3.70
40045;BMP280;25735;48.122;11.422;2023-02-01T05:15:41;95634.16;;;3.75
40045;BMP280;25735;48.122;11.422;2023-02-01T05:18:07;95637.41;;;3.82
40045;BMP280;25735;48.122;11.422;2023-02-01T05:20:32;95647.84;;;3.80
40045;BMP280;25735;48.122;11.422;2023-02-01T05:22:57;95647.00;;;3.83
40045;BMP280;25735;48.122;11.422;2023-02-01T05:25:22;95648.59;;;3.81
40045;BMP280;25735;48.122;11.422;2023-02-01T05:27:48;95651.19;;;3.84
40045;BMP280;25735;48.122;11.422;2023-02-01T05:30:13;95643.97;;;3.81
40045;BMP280;25735;48.122;11.422;2023-02-01T05:32:39;95654.16;;;3.74
40045;BMP280;25735;48.122;11.422;2023-02-01T05:35:04;95646.31;;;3.79
40045;BMP280;25735;48.122;11.422;2023-02-01T05:37:30;95638.59;;;3.81
40045;BMP280;25735;48.122;11.422;2023-02-01T05:39:55;95633.66;;;3.80
40045;BMP280;25735;48.122;11.422;2023-02-01T05:42:20;95628.84;;;3.87
40045;BMP280;25735;48.122;11.422;2023-02-01T05:44:45;95624.97;;;3.88
40045;BMP280;25735;48.122;11.422;2023-02-01T05:47:11;95635.06;;;3.84
40045;BMP280;25735;48.122;11.422;2023-02-01T05:49:37;95636.91;;;3.87
40045;BMP280;25735;48.122;11.422;2023-02-01T05:52:02;95646.41;;;3.76
40045;BMP280;25735;48.122;11.422;2023-02-01T05:54:28;95644.06;;;3.78
40045;BMP280;25735;48.122;11.422;2023-02-01T05:56:53;95659.94;;;3.88
40045;BMP280;25735;48.122;11.422;2023-02-01T05:59:18;95641.56;;;3.87
40045;BMP280;25735;48.122;11.422;2023-02-01T06:01:43;95636.50;;;3.89
40045;BMP280;25735;48.122;11.422;2023-02-01T06:04:09;95639.09;;;3.76
40045;BMP280;25735;48.122;11.422;2023-02-01T06:06:34;95630.78;;;3.87
40045;BMP280;25735;48.122;11.422;2023-02-01T06:09:00;95631.63;;;3.84
40045;BMP280;25735;48.122;11.422;2023-02-01T06:11:25;95617.66;;;3.89
40045;BMP280;25735;48.122;11.422;2023-02-01T06:13:51;95622.97;;;3.92
40045;BMP280;25735;48.122;11.422;2023-02-01T06:16:16;95633.41;;;3.90
40045;BMP280;25735;48.122;11.422;2023-02-01T06:18:41;95654.91;;;3.74
40045;BMP280;25735;48.122;11.422;2023-02-01T06:21:07;95647.16;;;3.76
40045;BMP280;25735;48.122;11.422;2023-02-01T06:23:32;95645.00;;;3.87
40045;BMP280;25735;48.122;11.422;2023-02-01T06:26:03;95656.91;;;3.86
40045;BMP280;25735;48.122;11.422;2023-02-01T06:28:30;95633.81;;;3.89
40045;BMP280;25735;48.122;11.422;2023-02-01T06:30:56;95641.28;;;3.97
40045;BMP280;25735;48.122;11.422;2023-02-01T06:33:23;95643.06;;;3.88
40045;BMP280;25735;48.122;11.422;2023-02-01T06:35:48;95639.53;;;3.91
40045;BMP280;25735;48.122;11.422;2023-02-01T06:38:13;95628.03;;;3.90
40045;BMP280;25735;48.122;11.422;2023-02-01T06:40:39;95627.94;;;3.93
40045;BMP280;25735;48.122;11.422;2023-02-01T06:43:06;95645.00;;;3.87
40045;BMP280;25735;48.122;11.422;2023-02-01T06:45:31;95639.19;;;3.89
40045;BMP280;25735;48.122;11.422;2023-02-01T06:47:58;95627.50;;;3.95
40045;BMP280;25735;48.122;11.422;2023-02-01T06:50:23;95622.66;;;3.90
40045;BMP280;25735;48.122;11.422;2023-02-01T06:52:49;95634.72;;;3.98
40045;BMP280;25735;48.122;11.422;2023-02-01T06:55:14;95634.53;;;4.05
40045;BMP280;25735;48.122;11.422;2023-02-01T06:57:39;95638.75;;;4.06
40045;BMP280;25735;48.122;11.422;2023-02-01T07:00:05;95632.28;;;4.03
40045;BMP280;25735;48.122;11.422;2023-02-01T07:02:30;95634.47;;;3.92
40045;BMP280;25735;48.122;11.422;2023-02-01T07:04:56;95631.88;;;3.89
40045;BMP280;25735;48.122;11.422;2023-02-01T07:07:21;95635.38;;;4.02
40045;BMP280;25735;48.122;11.422;2023-02-01T07:09:48;95640.44;;;4.00
40045;BMP280;25735;48.122;11.422;2023-02-01T07:12:13;95628.41;;;4.04
40045;BMP280;25735;48.122;11.422;2023-02-01T07:14:39;95637.75;;;4.00
40045;BMP280;25735;48.122;11.422;2023-02-01T07:17:04;95640.28;;;4.07
40045;BMP280;25735;48.122;11.422;2023-02-01T07:19:29;95632.69;;;4.02
40045;BMP280;25735;48.122;11.422;2023-02-01T07:21:54;95619.94;;;4.06
40045;BMP280;25735;48.122;11.422;2023-02-01T07:24:20;95615.72;;;4.05
40045;BMP280;25735;48.122;11.422;2023-02-01T07:26:45;95614.88;;;4.08
40045;BMP280;25735;48.122;11.422;2023-02-01T07:29:12;95630.16;;;4.11
40045;BMP280;25735;48.122;11.422;2023-02-01T07:31:37;95643.63;;;4.11
40045;BMP280;25735;48.122;11.422;2023-02-01T07:34:03;95626.38;;;4.08
40045;BMP280;25735;48.122;11.422;2023-02-01T07:36:28;95625.22;;;4.09
40045;BMP280;25735;48.122;11.422;2023-02-01T07:38:53;95624.13;;;4.07
40045;BMP280;25735;48.122;11.422;2023-02-01T07:41:19;95631.19;;;4.17
40045;BMP280;25735;48.122;11.422;2023-02-01T07:43:45;95611.16;;;4.18
40045;BMP280;25735;48.122;11.422;2023-02-01T07:46:10;95600.84;;;4.16
40045;BMP280;25735;48.122;11.422;2023-02-01T07:48:35;95604.59;;;4.19
40045;BMP280;25735;48.122;11.422;2023-02-01T07:51:04;95612.91;;;4.24
40045;BMP280;25735;48.122;11.422;2023-02-01T07:53:31;95622.84;;;4.27
40045;BMP280;25735;48.122;11.422;2023-02-01T07:55:57;95612.81;;;4.27
40045;BMP280;25735;48.122;11.422;2023-02-01T07:58:23;95612.53;;;4.38
40045;BMP280;25735;48.122;11.422;2023-02-01T08:00:49;95625.91;;;4.41
40045;BMP280;25735;48.122;11.422;2023-02-01T08:03:33;95636.75;;;4.38
40045;BMP280;25735;48.122;11.422;2023-02-01T08:05:58;95637.91;;;4.52
40045;BMP280;25735;48.122;11.422;2023-02-01T08:08:23;95639.66;;;4.59
40045;BMP280;25735;48.122;11.422;2023-02-01T08:10:49;95666.56;;;4.59
40045;BMP280;25735;48.122;11.422;2023-02-01T08:13:15;95654.16;;;4.49
40045;BMP280;25735;48.122;11.422;2023-02-01T08:15:41;95664.97;;;4.61
40045;BMP280;25735;48.122;11.422;2023-02-01T08:18:06;95668.91;;;4.57
40045;BMP280;25735;48.122;11.422;2023-02-01T08:20:31;95662.00;;;4.72
40045;BMP280;25735;48.122;11.422;2023-02-01T08:22:59;95655.94;;;4.68
40045;BMP280;25735;48.122;11.422;2023-02-01T08:25:24;95646.47;;;4.76
40045;BMP280;25735;48.122;11.422;2023-02-01T08:27:50;95665.78;;;4.74
40045;BMP280;25735;48.122;11.422;2023-02-01T08:30:15;95671.28;;;4.83
40045;BMP280;25735;48.122;11.422;2023-02-01T08:32:41;95671.38;;;4.79
40045;BMP280;25735;48.122;11.422;2023-02-01T08:35:07;95673.13;;;4.86
40045;BMP280;25735;48.122;11.422;2023-02-01T08:37:33;95682.47;;;4.81
40045;BMP280;25735;48.122;11.422;2023-02-01T08:39:58;95669.00;;;4.81
40045;BMP280;25735;48.122;11.422;2023-02-01T08:42:23;95661.72;;;4.94
40045;BMP280;25735;48.122;11.422;2023-02-01T08:45:08;95661.72;;;4.94
40045;BMP280;25735;48.122;11.422;2023-02-01T08:47:33;95649.81;;;5.07
40045;BMP280;25735;48.122;11.422;2023-02-01T08:49:59;95637.19;;;5.04
40045;BMP280;25735;48.122;11.422;2023-02-01T08:52:25;95648.81;;;5.02
40045;BMP280;25735;48.122;11.422;2023-02-01T08:54:50;95645.28;;;5.04
40045;BMP280;25735;48.122;11.422;2023-02-01T08:57:15;95655.00;;;5.14
40045;BMP280;25735;48.122;11.422;2023-02-01T08:59:41;95668.47;;;5.14
40045;BMP280;25735;48.122;11.422;2023-02-01T09:02:12;95656.72;;;5.21
40045;BMP280;25735;48.122;11.422;2023-02-01T09:04:38;95663.28;;;5.07
40045;BMP280;25735;48.122;11.422;2023-02-01T09:07:03;95633.84;;;5.01
40045;BMP280;25735;48.122;11.422;2023-02-01T09:09:28;95649.56;;;5.02
40045;BMP280;25735;48.122;11.422;2023-02-01T09:11:54;95658.97;;;5.10
40045;BMP280;25735;48.122;11.422;2023-02-01T09:14:19;95668.78;;;5.29
40045;BMP280;25735;48.122;11.422;2023-02-01T09:16:44;95673.53;;;5.25
40045;BMP280;25735;48.122;11.422;2023-02-01T09:19:09;95671.25;;;5.11
40045;BMP280;25735;48.122;11.422;2023-02-01T09:21:35;95668.78;;;5.16
40045;BMP280;25735;48.122;11.422;2023-02-01T09:24:00;95684.00;;;5.23
40045;BMP280;25735;48.122;11.422;2023-02-01T09:26:26;95668.78;;;5.29
40045;BMP280;25735;48.122;11.422;2023-02-01T09:28:52;95666.94;;;5.26
40045;BMP280;25735;48.122;11.422;2023-02-01T09:31:17;95665.91;;;5.48
40045;BMP280;25735;48.122;11.422;2023-02-01T09:33:42;95673.69;;;5.46
40045;BMP280;25735;48.122;11.422;2023-02-01T09:36:08;95665.56;;;5.33
40045;BMP280;25735;48.122;11.422;2023-02-01T09:38:33;95662.25;;;5.30
40045;BMP280;25735;48.122;11.422;2023-02-01T09:40:59;95674.97;;;5.54
40045;BMP280;25735;48.122;11.422;2023-02-01T09:43:43;95668.72;;;5.57
40045;BMP280;25735;48.122;11.422;2023-02-01T09:46:27;95659.03;;;5.59
40045;BMP280;25735;48.122;11.422;2023-02-01T09:48:55;95655.47;;;5.50
40045;BMP280;25735;48.122;11.422;2023-02-01T09:51:34;95667.97;;;5.68
40045;BMP280;25735;48.122;11.422;2023-02-01T09:54:22;95654.38;;;5.47
40045;BMP280;25735;48.122;11.422;2023-02-01T09:56:51;95667.00;;;5.50
40045;BMP280;25735;48.122;11.422;2023-02-01T09:59:46;95648.25;;;5.59
40045;BMP280;25735;48.122;11.422;2023-02-01T10:02:15;95653.22;;;5.73
40045;BMP280;25735;48.122;11.422;2023-02-01T10:04:41;95690.59;;;5.34
40045;BMP280;25735;48.122;11.422;2023-02-01T10:07:20;95671.19;;;5.51
40045;BMP280;25735;48.122;11.422;2023-02-01T10:10:21;95665.88;;;5.35
40045;BMP280;25735;48.122;11.422;2023-02-01T10:16:12;95678.63;;;5.47
40045;BMP280;25735;48.122;11.422;2023-02-01T10:18:51;95662.47;;;5.47
40045;BMP280;25735;48.122;11.422;2023-02-01T10:24:10;95692.94;;;5.20
40045;BMP280;25735;48.122;11.422;2023-02-01T10:26:42;95685.28;;;5.31
40045;BMP280;25735;48.122;11.422;2023-02-01T10:29:20;95675.38;;;5.28
40045;BMP280;25735;48.122;11.422;2023-02-01T10:31:48;95685.50;;;5.24
40045;BMP280;25735;48.122;11.422;2023-02-01T10:34:21;95679.47;;;5.32
40045;BMP280;25735;48.122;11.422;2023-02-01T10:37:12;95684.56;;;5.42
40045;BMP280;25735;48.122;11.422;2023-02-01T10:39:44;95697.94;;;5.46
40045;BMP280;25735;48.122;11.422;2023-02-01T10:42:10;95683.91;;;5.51
40045;BMP280;25735;48.122;11.422;2023-02-01T10:44:38;95690.38;;;5.41
40045;BMP280;25735;48.122;11.422;2023-02-01T10:47:05;95707.16;;;5.73
40045;BMP280;25735;48.122;11.422;2023-02-01T10:50:08;95702.66;;;5.42
40045;BMP280;25735;48.122;11.422;2023-02-01T10:53:00;95708.03;;;5.42
40045;BMP280;25735;48.122;11.422;2023-02-01T10:55:40;95703.00;;;5.44
40045;BMP280;25735;48.122;11.422;2023-02-01T10:58:15;95713.63;;;5.35
40045;BMP280;25735;48.122;11.422;2023-02-01T11:01:03;95703.38;;;5.18
40045;BMP280;25735;48.122;11.422;2023-02-01T11:03:57;95696.94;;;5.28
40045;BMP280;25735;48.122;11.422;2023-02-01T11:06:41;95709.88;;;5.32
40045;BMP280;25735;48.122;11.422;2023-02-01T11:11:33;95709.09;;;5.32
40045;BMP280;25735;48.122;11.422;2023-02-01T11:14:01;95710.97;;;5.47
40045;BMP280;25735;48.122;11.422;2023-02-01T11:16:37;95717.72;;;5.27
40045;BMP280;25735;48.122;11.422;2023-02-01T11:19:04;95715.28;;;5.32
40045;BMP280;25735;48.122;11.422;2023-02-01T11:21:30;95707.19;;;5.45
40045;BMP280;25735;48.122;11.422;2023-02-01T11:24:01;95711.59;;;5.27
40045;BMP280;25735;48.122;11.422;2023-02-01T11:26:27;95719.53;;;5.18
40045;BMP280;25735;48.122;11.422;2023-02-01T11:29:06;95711.59;;;5.27
40045;BMP280;25735;48.122;11.422;2023-02-01T11:31:35;95720.53;;;5.24
40045;BMP280;25735;48.122;11.422;2023-02-01T11:34:07;95705.34;;;5.30
40045;BMP280;25735;48.122;11.422;2023-02-01T11:36:36;95711.25;;;5.25
40045;BMP280;25735;48.122;11.422;2023-02-01T11:39:23;95713.41;;;5.17
40045;BMP280;25735;48.122;11.422;2023-02-01T11:42:05;95738.59;;;5.11
40045;BMP280;25735;48.122;11.422;2023-02-01T11:44:35;95714.81;;;5.22
40045;BMP280;25735;48.122;11.422;2023-02-01T11:47:38;95725.03;;;5.14
40045;BMP280;25735;48.122;11.422;2023-02-01T11:50:12;95737.75;;;5.14
40045;BMP280;25735;48.122;11.422;2023-02-01T11:52:58;95727.34;;;5.00
40045;BMP280;25735;48.122;11.422;2023-02-01T11:55:38;95719.72;;;5.11
40045;BMP280;25735;48.122;11.422;2023-02-01T12:17:42;95687.91;;;4.94
40045;BMP280;25735;48.122;11.422;2023-02-01T12:20:47;95686.28;;;4.96
40045;BMP280;25735;48.122;11.422;2023-02-01T12:26:00;95672.03;;;4.83
40045;BMP280;25735;48.122;11.422;2023-02-01T12:34:19;95649.31;;;4.84
40045;BMP280;25735;48.122;11.422;2023-02-01T12:36:59;95658.38;;;4.90
40045;BMP280;25735;48.122;11.422;2023-02-01T12:39:40;95652.00;;;4.84
40045;BMP280;25735;48.122;11.422;2023-02-01T12:42:21;95645.69;;;4.91
40045;BMP280;25735;48.122;11.422;2023-02-01T12:47:35;95647.41;;;4.97
40045;BMP280;25735;48.122;11.422;2023-02-01T12:50:11;95626.66;;;5.10
40045;BMP280;25735;48.122;11.422;2023-02-01T12:52:45;95637.28;;;5.01
40045;BMP280;25735;48.122;11.422;2023-02-01T12:55:22;95642.81;;;5.10
40045;BMP280;25735;48.122;11.422;2023-02-01T12:57:53;95643.56;;;5.10
40045;BMP280;25735;48.122;11.422;2023-02-01T13:00:43;95645.31;;;5.29
40045;BMP280;25735;48.122;11.422;2023-02-01T13:06:09;95634.63;;;5.13
40045;BMP280;25735;48.122;11.422;2023-02-01T13:08:53;95633.97;;;5.09
40045;BMP280;25735;48.122;11.422;2023-02-01T13:11:26;95634.84;;;5.19
40045;BMP280;25735;48.122;11.422;2023-02-01T13:14:08;95626.53;;;5.26
40045;BMP280;25735;48.122;11.422;2023-02-01T13:16:41;95620.19;;;5.07
40045;BMP280;25735;48.122;11.422;2023-02-01T13:19:28;95617.25;;;5.02
40045;BMP280;25735;48.122;11.422;2023-02-01T13:22:09;95624.25;;;5.12
40045;BMP280;25735;48.122;11.422;2023-02-01T13:24:41;95619.94;;;5.02
40045;BMP280;25735;48.122;11.422;2023-02-01T13:27:12;95617.38;;;5.11
40045;BMP280;25735;48.122;11.422;2023-02-01T13:29:47;95603.47;;;5.00
40045;BMP280;25735;48.122;11.422;2023-02-01T13:40:41;95614.59;;;5.27
40045;BMP280;25735;48.122;11.422;2023-02-01T13:43:29;95603.50;;;5.25
40045;BMP280;25735;48.122;11.422;2023-02-01T13:46:01;95610.38;;;5.26
40045;BMP280;25735;48.122;11.422;2023-02-01T13:48:40;95618.66;;;5.19
40045;BMP280;25735;48.122;11.422;2023-02-01T13:51:07;95599.50;;;5.17
40045;BMP280;25735;48.122;11.422;2023-02-01T13:53:37;95610.47;;;5.22
40045;BMP280;25735;48.122;11.422;2023-02-01T13:56:13;95612.31;;;5.13
40045;BMP280;25735;48.122;11.422;2023-02-01T13:58:41;95619.34;;;5.23
40045;BMP280;25735;48.122;11.422;2023-02-01T14:04:01;95623.09;;;5.13
40045;BMP280;25735;48.122;11.422;2023-02-01T14:11:36;95621.53;;;5.00
40045;BMP280;25735;48.122;11.422;2023-02-01T14:16:43;95623.28;;;5.06
40045;BMP280;25735;48.122;11.422;2023-02-01T14:21:50;95624.38;;;5.08
40045;BMP280;25735;48.122;11.422;2023-02-01T14:24:26;95623.38;;;5.03
40045;BMP280;25735;48.122;11.422;2023-02-01T14:27:13;95617.69;;;5.01
40045;BMP280;25735;48.122;11.422;2023-02-01T14:29:42;95636.66;;;4.97
40045;BMP280;25735;48.122;11.422;2023-02-01T14:32:18;95633.75;;;5.04
40045;BMP280;25735;48.122;11.422;2023-02-01T14:47:45;95621.28;;;5.10
40045;BMP280;25735;48.122;11.422;2023-02-01T14:58:49;95628.06;;;5.14
40045;BMP280;25735;48.122;11.422;2023-02-01T15:04:11;95629.41;;;4.94
40045;BMP280;25735;48.122;11.422;2023-02-01T15:06:48;95632.41;;;4.96
40045;BMP280;25735;48.122;11.422;2023-02-01T15:09:34;95634.25;;;4.99
40045;BMP280;25735;48.122;11.422;2023-02-01T15:12:05;95638.75;;;4.90
40045;BMP280;25735;48.122;11.422;2023-02-01T15:14:42;95644.53;;;4.76
40045;BMP280;25735;48.122;11.422;2023-02-01T15:17:27;95649.84;;;4.79
40045;BMP280;25735;48.122;11.422;2023-02-01T15:20:20;95643.44;;;4.61
40045;BMP280;25735;48.122;11.422;2023-02-01T15:22:58;95661.84;;;4.63
40045;BMP280;25735;48.122;11.422;2023-02-01T15:25:29;95653.81;;;4.47
40045;BMP280;25735;48.122;11.422;2023-02-01T15:27:55;95668.09;;;4.44
40045;BMP280;25735;48.122;11.422;2023-02-01T15:30:22;95654.75;;;4.25
40045;BMP280;25735;48.122;11.422;2023-02-01T15:32:48;95652.03;;;4.13
40045;BMP280;25735;48.122;11.422;2023-02-01T15:41:06;95644.97;;;4.03
40045;BMP280;25735;48.122;11.422;2023-02-01T15:43:36;95647.81;;;4.12
40045;BMP280;25735;48.122;11.422;2023-02-01T15:46:06;95651.28;;;3.96
40045;BMP280;25735;48.122;11.422;2023-02-01T15:48:36;95647.91;;;4.08
40045;BMP280;25735;48.122;11.422;2023-02-01T15:51:03;95663.09;;;3.99
40045;BMP280;25735;48.122;11.422;2023-02-01T15:53:29;95667.91;;;4.07
40045;BMP280;25735;48.122;11.422;2023-02-01T15:55:59;95664.03;;;4.08
40045;BMP280;25735;48.122;11.422;2023-02-01T15:58:26;95665.31;;;4.04
40045;BMP280;25735;48.122;11.422;2023-02-01T16:01:00;95645.13;;;4.12
40045;BMP280;25735;48.122;11.422;2023-02-01T16:03:43;95648.00;;;4.05
40045;BMP280;25735;48.122;11.422;2023-02-01T16:06:10;95641.59;;;4.15
40045;BMP280;25735;48.122;11.422;2023-02-01T16:08:36;95652.78;;;4.13
40045;BMP280;25735;48.122;11.422;2023-02-01T16:13:33;95652.88;;;4.10
40045;BMP280;25735;48.122;11.422;2023-02-01T16:15:58;95655.38;;;4.17
40045;BMP280;25735;48.122;11.422;2023-02-01T16:18:24;95646.22;;;4.14
40045;BMP280;25735;48.122;11.422;2023-02-01T16:20:49;95657.13;;;4.23
40045;BMP280;25735;48.122;11.422;2023-02-01T16:23:14;95661.06;;;4.19